This is the latest recevied weather packets stored in our database for station/object HS3PIK-2. If no packets are shown the sender has not sent any weather packets the latest 10 day(s).
| Time | Temp. | Humidity | Pressure | Rain* | Wind** | Luminosity | Snow |
|---|---|---|---|---|---|---|---|
| 1777447791 | 42.78° C | 42% | - | - | - | 0 W/m² | - |
| 1777447461 | 42.22° C | 43% | - | - | - | 0 W/m² | - |
| 1777447134 | 42.22° C | 44% | - | - | - | 0 W/m² | - |
| 1777446804 | 41.67° C | 45% | - | - | - | 0 W/m² | - |
| 1777446474 | 41.67° C | 46% | - | - | - | 0 W/m² | - |
| 1777446141 | 41.11° C | 46% | - | - | - | 0 W/m² | - |
| 1777445814 | 41.11° C | 47% | - | - | - | 0 W/m² | - |
| 1777445486 | 40° C | 47% | - | - | - | 0 W/m² | - |
| 1777445164 | 39.44° C | 49% | - | - | - | 0 W/m² | - |
| 1777444837 | 37.78° C | 52% | - | - | - | 0 W/m² | - |
| 1777444509 | 38.33° C | 49% | - | - | - | 0 W/m² | - |
| 1777444179 | 38.89° C | 47% | - | - | - | 0 W/m² | - |
| 1777443849 | 39.44° C | 47% | - | - | - | 0 W/m² | - |
| 1777443522 | 40° C | 46% | - | - | - | 0 W/m² | - |
| 1777443192 | 40° C | 48% | - | - | - | 0 W/m² | - |
| 1777442867 | 39.44° C | 50% | - | - | - | 0 W/m² | - |
| 1777442539 | 37.78° C | 52% | - | - | - | 0 W/m² | - |
| 1777442215 | 37.22° C | 54% | - | - | - | 0 W/m² | - |
| 1777441890 | 37.78° C | 53% | - | - | - | 0 W/m² | - |
| 1777441562 | 37.22° C | 53% | - | - | - | 0 W/m² | - |
| 1777441232 | 36.67° C | 54% | - | - | - | 0 W/m² | - |
| 1777440910 | 36.67° C | 56% | - | - | - | 0 W/m² | - |
| 1777440577 | 37.22° C | 54% | - | - | - | 0 W/m² | - |
| 1777440247 | 36.67° C | 54% | - | - | - | 0 W/m² | - |
| 1777439917 | 36.67° C | 55% | - | - | - | 0 W/m² | - |
* Rain since midnight (hover to see other rain measurements)
** Current wind speed in m/s (hover to see current wind gust speed)